createdAt,value
2019-02-07T00:00:57.457Z,21.90
2019-02-07T00:04:02.106Z,21.80
2019-02-07T00:07:06.827Z,22.00
2019-02-07T00:10:12.574Z,21.90
2019-02-07T00:13:17.302Z,22.30
2019-02-07T00:16:22.037Z,21.80
2019-02-07T00:19:27.008Z,21.80
2019-02-07T00:22:31.911Z,21.70
2019-02-07T00:25:36.636Z,21.60
2019-02-07T00:28:41.487Z,21.70
2019-02-07T00:31:46.216Z,21.70
2019-02-07T00:34:51.096Z,21.60
2019-02-07T00:37:55.753Z,21.60
2019-02-07T00:41:00.668Z,21.60
2019-02-07T00:44:05.392Z,21.70
2019-02-07T00:47:10.069Z,22.10
2019-02-07T00:50:15.266Z,21.50
2019-02-07T00:53:19.989Z,21.50
2019-02-07T00:56:24.820Z,21.50
2019-02-07T00:59:29.783Z,21.40
2019-02-07T01:02:34.703Z,21.40
2019-02-07T01:05:39.430Z,21.40
2019-02-07T01:08:44.255Z,21.40
2019-02-07T01:11:49.098Z,21.50
2019-02-07T01:15:01.672Z,22.00
2019-02-07T01:18:00.275Z,21.40
2019-02-07T01:21:04.936Z,21.40
2019-02-07T01:24:09.619Z,21.30
2019-02-07T01:27:14.358Z,21.30
2019-02-07T01:30:20.518Z,21.20
2019-02-07T01:33:25.367Z,22.00
2019-02-07T01:36:30.182Z,21.20
2019-02-07T01:39:35.227Z,21.30
2019-02-07T01:42:40.041Z,21.30
2019-02-07T01:45:44.999Z,21.40
2019-02-07T01:48:51.112Z,21.40
2019-02-07T01:51:55.868Z,21.30
2019-02-07T01:55:00.891Z,21.20
2019-02-07T01:58:05.938Z,21.70
2019-02-07T02:01:10.769Z,21.20
2019-02-07T02:04:15.725Z,21.50
2019-02-07T02:07:20.437Z,21.10
2019-02-07T02:10:26.699Z,21.20
2019-02-07T02:13:31.113Z,21.70
2019-02-07T02:16:35.843Z,21.20
2019-02-07T02:19:40.489Z,21.20
2019-02-07T02:22:45.407Z,21.30
2019-02-07T02:25:50.116Z,21.20
2019-02-07T02:28:54.750Z,21.20
2019-02-07T02:31:59.466Z,21.20
2019-02-07T02:35:04.002Z,21.10
2019-02-07T02:38:08.948Z,21.20
2019-02-07T02:41:13.873Z,21.00
2019-02-07T02:44:19.602Z,21.00
2019-02-07T02:47:24.666Z,21.20
2019-02-07T02:50:29.377Z,20.90
2019-02-07T02:53:34.145Z,21.10
2019-02-07T02:56:39.263Z,21.10
2019-02-07T02:59:44.080Z,20.90
2019-02-07T03:03:06.557Z,20.90
2019-02-07T03:06:30.246Z,20.90
2019-02-07T03:10:05.809Z,21.00
2019-02-07T03:13:30.180Z,20.90
2019-02-07T03:16:56.210Z,20.80
2019-02-07T03:20:35.118Z,21.10
2019-02-07T03:23:57.805Z,20.80
2019-02-07T03:27:27.238Z,20.80
2019-02-07T03:30:50.776Z,20.80
2019-02-07T03:34:13.214Z,20.60
2019-02-07T03:37:35.065Z,20.50
2019-02-07T03:41:07.519Z,20.80
2019-02-07T03:44:43.290Z,20.80
2019-02-07T03:48:25.259Z,20.80
2019-02-07T03:51:40.531Z,20.80
2019-02-07T03:55:04.181Z,21.00
2019-02-07T03:58:33.665Z,18.30
2019-02-07T04:02:15.721Z,15.50
2019-02-07T04:05:38.010Z,15.50
2019-02-07T04:09:08.499Z,15.60
2019-02-07T04:12:31.966Z,17.50
2019-02-07T04:15:55.690Z,16.80
2019-02-07T04:19:16.257Z,17.40
2019-02-07T04:22:42.221Z,17.60
2019-02-07T04:25:57.806Z,18.10
2019-02-07T04:29:33.466Z,19.10
2019-02-07T04:33:02.894Z,18.70
2019-02-07T04:36:22.209Z,19.20
2019-02-07T04:39:45.799Z,19.80
2019-02-07T04:43:09.627Z,19.70
2019-02-07T04:46:48.525Z,19.80
2019-02-07T04:50:15.210Z,20.10
2019-02-07T04:53:46.059Z,20.10
2019-02-07T04:57:09.759Z,19.70
2019-02-07T05:00:24.526Z,19.70
2019-02-07T05:03:49.915Z,19.40
2019-02-07T05:07:22.807Z,19.30
2019-02-07T05:10:46.399Z,19.30
2019-02-07T05:14:06.626Z,19.50
2019-02-07T05:17:48.429Z,19.50
2019-02-07T05:21:17.911Z,19.40
2019-02-07T05:24:40.395Z,19.40
2019-02-07T05:28:06.660Z,19.40
2019-02-07T05:31:21.497Z,19.50
2019-02-07T05:34:50.191Z,19.60
2019-02-07T05:38:23.016Z,19.60
2019-02-07T05:41:40.286Z,19.60
2019-02-07T05:45:06.801Z,19.50
2019-02-07T05:48:39.421Z,19.60
2019-02-07T05:52:15.426Z,20.10
2019-02-07T05:55:39.051Z,19.40
2019-02-07T05:58:55.986Z,19.40
2019-02-07T06:02:25.509Z,19.40
2019-02-07T06:05:49.186Z,19.40
2019-02-07T06:09:31.331Z,19.40
2019-02-07T06:13:10.022Z,19.30
2019-02-07T06:16:39.582Z,19.40
2019-02-07T06:20:13.987Z,19.30
2019-02-07T06:23:41.589Z,19.30
2019-02-07T06:27:05.712Z,19.40
2019-02-07T06:30:34.476Z,19.40
2019-02-07T06:33:57.171Z,19.30
2019-02-07T06:37:20.088Z,19.30
2019-02-07T06:40:55.733Z,19.30
2019-02-07T06:44:14.787Z,19.20
2019-02-07T06:47:37.173Z,19.20
2019-02-07T06:50:52.604Z,19.20
2019-02-07T06:54:15.261Z,19.00
2019-02-07T06:57:37.611Z,19.00
2019-02-07T07:01:01.190Z,18.90
2019-02-07T07:04:24.231Z,18.90
2019-02-07T07:07:47.904Z,18.90
2019-02-07T07:11:17.393Z,18.90
2019-02-07T07:14:30.492Z,18.90
2019-02-07T07:17:59.882Z,18.80
2019-02-07T07:21:23.614Z,18.70
2019-02-07T07:24:50.432Z,18.60
2019-02-07T07:28:29.194Z,18.10
2019-02-07T07:31:51.469Z,18.40
2019-02-07T07:35:21.002Z,18.10
2019-02-07T07:38:50.643Z,18.30
2019-02-07T07:42:13.081Z,18.30
2019-02-07T07:45:28.583Z,18.30
2019-02-07T07:48:52.131Z,18.30
2019-02-07T07:52:18.702Z,18.40
2019-02-07T07:55:42.488Z,18.50
2019-02-07T07:59:04.800Z,18.40
2019-02-07T08:02:27.232Z,18.30
2019-02-07T08:05:49.756Z,18.30
2019-02-07T08:09:22.588Z,18.30
2019-02-07T08:12:55.272Z,18.40
2019-02-07T08:16:14.452Z,18.30
2019-02-07T08:19:41.172Z,18.40
2019-02-07T08:23:04.817Z,18.30
2019-02-07T08:26:25.727Z,18.50
2019-02-07T08:29:48.062Z,18.20
2019-02-07T08:33:10.809Z,18.20
2019-02-07T08:36:37.756Z,18.30
2019-02-07T08:40:20.175Z,18.80
2019-02-07T08:43:58.591Z,18.30
2019-02-07T08:47:20.795Z,18.10
2019-02-07T08:50:50.058Z,18.10
2019-02-07T08:54:22.512Z,18.10
2019-02-07T08:57:33.583Z,18.10
2019-02-07T09:01:12.205Z,18.00
2019-02-07T09:04:47.737Z,17.50
2019-02-07T09:08:10.030Z,17.90
2019-02-07T09:11:30.386Z,17.90
2019-02-07T09:14:59.467Z,17.80
2019-02-07T09:18:21.354Z,17.70
2019-02-07T09:21:44.076Z,17.60
2019-02-07T09:25:06.441Z,17.70
2019-02-07T09:28:32.953Z,17.70
2019-02-07T09:32:02.429Z,17.70
2019-02-07T09:35:17.375Z,17.80
2019-02-07T09:38:40.826Z,17.70
2019-02-07T09:41:58.117Z,17.80
2019-02-07T09:45:20.548Z,17.70
2019-02-07T09:48:40.199Z,17.80
2019-02-07T09:52:03.888Z,17.80
2019-02-07T09:55:28.272Z,17.70
2019-02-07T09:59:03.204Z,17.80
2019-02-07T10:02:35.338Z,17.70
2019-02-07T10:05:57.839Z,17.70
2019-02-07T10:09:21.433Z,17.70
2019-02-07T10:12:56.859Z,17.80
2019-02-07T10:16:23.402Z,17.70
2019-02-07T10:19:56.004Z,17.60
2019-02-07T10:23:26.153Z,17.60
2019-02-07T10:26:48.779Z,17.60
2019-02-07T10:30:27.782Z,17.60
2019-02-07T10:33:54.286Z,17.50
2019-02-07T10:37:29.808Z,17.50
2019-02-07T10:40:52.173Z,17.90
2019-02-07T10:44:21.571Z,17.40
2019-02-07T10:47:43.773Z,17.50
2019-02-07T10:51:06.161Z,17.40
2019-02-07T10:54:44.842Z,17.50
2019-02-07T10:58:10.225Z,17.40
2019-02-07T11:01:33.836Z,17.40
2019-02-07T11:05:15.490Z,17.40
2019-02-07T11:08:37.223Z,17.40
2019-02-07T11:12:02.869Z,17.40
2019-02-07T11:15:27.355Z,17.40
2019-02-07T11:18:55.538Z,17.40
2019-02-07T11:22:15.985Z,17.50
2019-02-07T11:25:51.668Z,17.50
2019-02-07T11:29:13.567Z,17.40
2019-02-07T11:32:41.808Z,17.40
2019-02-07T11:36:05.448Z,17.50
2019-02-07T11:39:22.509Z,17.50
2019-02-07T11:42:45.612Z,17.40
2019-02-07T11:46:27.439Z,17.50
2019-02-07T11:49:52.490Z,17.40
2019-02-07T11:53:19.243Z,17.50
2019-02-07T11:56:49.043Z,17.40
2019-02-07T12:00:21.684Z,17.40
2019-02-07T12:03:39.253Z,17.40
2019-02-07T12:07:12.147Z,17.40
2019-02-07T12:10:35.474Z,17.50
2019-02-07T12:13:49.826Z,17.40
2019-02-07T12:17:28.530Z,17.50
2019-02-07T12:21:07.363Z,17.50
2019-02-07T12:24:32.535Z,17.60
2019-02-07T12:27:57.542Z,17.40
2019-02-07T12:31:19.524Z,17.50
2019-02-07T12:34:58.435Z,18.00
2019-02-07T12:38:20.694Z,17.40
2019-02-07T12:41:46.973Z,17.50
2019-02-07T12:45:20.479Z,17.50
2019-02-07T12:48:42.698Z,17.40
2019-02-07T12:52:05.420Z,17.40
2019-02-07T12:55:18.585Z,17.30
2019-02-07T12:58:35.294Z,17.40
2019-02-07T13:02:01.963Z,17.40
2019-02-07T13:05:28.402Z,17.40
2019-02-07T13:09:07.499Z,17.40
2019-02-07T13:12:25.058Z,17.30
2019-02-07T13:15:57.711Z,17.30
2019-02-07T13:19:24.049Z,17.20
2019-02-07T13:22:50.876Z,17.30
2019-02-07T13:26:14.493Z,17.20
2019-02-07T13:29:56.688Z,17.30
2019-02-07T13:33:12.744Z,17.30
2019-02-07T13:36:36.376Z,17.30
2019-02-07T13:39:59.211Z,17.40
2019-02-07T13:43:35.107Z,17.20
2019-02-07T13:47:04.965Z,17.20
2019-02-07T13:50:27.761Z,17.20
2019-02-07T13:53:48.535Z,17.30
2019-02-07T13:57:18.352Z,17.90
2019-02-07T14:00:50.682Z,17.80
2019-02-07T14:04:29.405Z,18.00
2019-02-07T14:07:52.153Z,18.10
2019-02-07T14:11:16.840Z,18.30
2019-02-07T14:14:39.148Z,18.20
2019-02-07T14:17:54.618Z,18.30
2019-02-07T14:21:21.152Z,18.60
2019-02-07T14:24:43.309Z,18.70
2019-02-07T14:28:11.953Z,19.00
2019-02-07T14:31:34.075Z,19.40
2019-02-07T14:34:57.797Z,20.30
2019-02-07T14:38:20.327Z,20.40
2019-02-07T14:41:42.651Z,21.90
2019-02-07T14:45:06.311Z,23.00
2019-02-07T14:48:22.762Z,23.30
2019-02-07T14:51:27.476Z,24.90
2019-02-07T14:54:32.226Z,25.80
2019-02-07T14:57:37.044Z,26.20
2019-02-07T15:00:41.658Z,26.80
2019-02-07T15:03:46.609Z,27.10
2019-02-07T15:06:51.438Z,26.30
2019-02-07T15:09:56.173Z,27.40
2019-02-07T15:13:02.621Z,27.50
2019-02-07T15:16:07.161Z,27.40
2019-02-07T15:19:11.996Z,27.80
2019-02-07T15:22:16.823Z,27.60
2019-02-07T15:25:21.544Z,27.30
2019-02-07T15:28:26.417Z,26.50
2019-02-07T15:31:30.911Z,25.80
2019-02-07T15:34:35.645Z,26.40
2019-02-07T15:37:40.354Z,25.80
2019-02-07T15:40:45.914Z,26.20
2019-02-07T15:43:50.520Z,25.80
2019-02-07T15:46:55.143Z,25.70
2019-02-07T15:49:59.986Z,25.00
2019-02-07T15:53:05.837Z,25.20
2019-02-07T15:56:10.665Z,24.70
2019-02-07T15:59:23.782Z,24.40
2019-02-07T16:02:50.524Z,24.70
2019-02-07T16:05:55.344Z,24.80
2019-02-07T16:09:00.056Z,24.60
2019-02-07T16:12:04.792Z,24.40
2019-02-07T16:15:10.456Z,24.70
2019-02-07T16:18:15.284Z,24.70
2019-02-07T16:21:20.008Z,24.70
2019-02-07T16:24:24.760Z,24.70
2019-02-07T16:27:29.690Z,24.60
2019-02-07T16:30:34.628Z,24.70
2019-02-07T16:33:39.834Z,24.70
2019-02-07T16:36:44.691Z,24.40
2019-02-07T16:39:49.497Z,25.20
2019-02-07T16:42:54.332Z,25.20
2019-02-07T16:45:59.057Z,27.10
2019-02-07T16:49:03.684Z,27.90
2019-02-07T16:52:08.451Z,28.60
2019-02-07T16:55:13.682Z,28.60
2019-02-07T16:58:18.393Z,28.00
2019-02-07T17:01:23.118Z,28.60
2019-02-07T17:04:27.750Z,28.50
2019-02-07T17:07:32.473Z,27.70
2019-02-07T17:10:37.115Z,27.70
2019-02-07T17:13:41.840Z,27.70
2019-02-07T17:16:46.861Z,27.60
2019-02-07T17:19:51.804Z,28.00
2019-02-07T17:22:57.757Z,27.40
2019-02-07T17:26:02.584Z,27.20
2019-02-07T17:29:07.216Z,26.90
2019-02-07T17:32:12.049Z,26.60
2019-02-07T17:35:16.899Z,27.00
2019-02-07T17:38:21.823Z,26.90
2019-02-07T17:41:26.944Z,26.80
2019-02-07T17:44:31.475Z,26.60
2019-02-07T17:47:36.387Z,26.50
2019-02-07T17:50:41.445Z,26.40
2019-02-07T17:53:46.376Z,26.10
2019-02-07T17:56:51.209Z,26.10
2019-02-07T17:59:56.225Z,25.80
2019-02-07T18:03:02.087Z,25.60
2019-02-07T18:06:07.873Z,25.40
2019-02-07T18:09:12.771Z,25.40
2019-02-07T18:12:17.587Z,25.20
2019-02-07T18:15:22.538Z,25.60
2019-02-07T18:18:27.369Z,25.10
2019-02-07T18:21:34.211Z,25.30
2019-02-07T18:24:38.768Z,25.10
2019-02-07T18:27:43.713Z,25.10
2019-02-07T18:30:50.427Z,25.10
2019-02-07T18:33:56.884Z,25.00
2019-02-07T18:37:01.512Z,25.10
2019-02-07T18:40:06.807Z,25.10
2019-02-07T18:43:11.634Z,25.20
2019-02-07T18:46:16.186Z,25.50
2019-02-07T18:49:21.384Z,25.00
2019-02-07T18:52:28.390Z,24.80
2019-02-07T18:55:33.285Z,24.90
2019-02-07T18:58:38.451Z,24.50
2019-02-07T19:01:43.268Z,24.70
2019-02-07T19:04:48.145Z,24.70
2019-02-07T19:07:53.288Z,24.60
2019-02-07T19:10:57.988Z,24.70
2019-02-07T19:14:02.706Z,25.10
2019-02-07T19:17:07.331Z,24.50
2019-02-07T19:20:14.425Z,24.50
2019-02-07T19:23:19.133Z,24.70
2019-02-07T19:26:23.773Z,24.50
2019-02-07T19:29:28.715Z,24.30
2019-02-07T19:32:33.541Z,24.20
2019-02-07T19:35:38.476Z,23.90
2019-02-07T19:38:43.185Z,24.00
2019-02-07T19:41:47.939Z,23.90
2019-02-07T19:44:52.841Z,23.80
2019-02-07T19:47:57.789Z,24.20
2019-02-07T19:51:02.527Z,23.90
2019-02-07T19:54:07.144Z,23.80
2019-02-07T19:57:12.065Z,23.70
2019-02-07T20:00:19.173Z,23.70
2019-02-07T20:03:23.893Z,24.20
2019-02-07T20:06:28.899Z,23.50
2019-02-07T20:09:33.752Z,23.60
2019-02-07T20:12:38.697Z,23.40
2019-02-07T20:15:43.625Z,23.60
2019-02-07T20:18:48.441Z,23.40
2019-02-07T20:21:53.672Z,23.30
2019-02-07T20:25:00.165Z,23.90
2019-02-07T20:28:04.884Z,23.30
2019-02-07T20:31:09.656Z,23.60
2019-02-07T20:34:14.436Z,23.60
2019-02-07T20:37:19.372Z,23.40
2019-02-07T20:40:25.113Z,23.40
2019-02-07T20:43:29.885Z,23.30
2019-02-07T20:46:34.570Z,23.40
2019-02-07T20:49:39.319Z,23.20
2019-02-07T20:52:44.013Z,23.20
2019-02-07T20:55:48.852Z,23.20
2019-02-07T20:58:53.565Z,23.20
2019-02-07T21:01:58.435Z,23.10
2019-02-07T21:05:03.341Z,23.50
2019-02-07T21:08:08.292Z,23.30
2019-02-07T21:11:14.117Z,23.20
2019-02-07T21:14:18.902Z,23.10
2019-02-07T21:17:23.699Z,23.00
2019-02-07T21:20:28.944Z,22.90
2019-02-07T21:23:33.986Z,23.70
2019-02-07T21:26:39.012Z,23.50
2019-02-07T21:29:43.846Z,23.20
2019-02-07T21:32:48.580Z,22.90
2019-02-07T21:35:53.193Z,22.90
2019-02-07T21:38:57.936Z,22.70
2019-02-07T21:42:04.683Z,22.70
2019-02-07T21:45:10.437Z,22.70
2019-02-07T21:48:15.180Z,22.50
2019-02-07T21:51:19.920Z,22.50
2019-02-07T21:54:24.630Z,22.40
2019-02-07T21:57:31.899Z,22.40
2019-02-07T22:00:38.392Z,22.30
2019-02-07T22:03:43.145Z,22.20
2019-02-07T22:06:48.079Z,22.20
2019-02-07T22:09:53.098Z,22.10
2019-02-07T22:12:58.049Z,22.00
2019-02-07T22:16:03.288Z,22.00
2019-02-07T22:19:08.093Z,21.90
2019-02-07T22:22:13.030Z,21.80
2019-02-07T22:25:19.180Z,21.60
2019-02-07T22:28:23.942Z,21.80
2019-02-07T22:31:28.632Z,21.70
2019-02-07T22:34:33.793Z,21.60
2019-02-07T22:37:38.369Z,21.50
2019-02-07T22:40:43.245Z,21.50
2019-02-07T22:43:47.955Z,21.40
2019-02-07T22:46:52.603Z,21.40
2019-02-07T22:49:57.641Z,21.30
2019-02-07T22:53:02.450Z,21.30
2019-02-07T22:56:07.280Z,21.30
2019-02-07T22:59:11.904Z,22.00
2019-02-07T23:02:16.738Z,21.20
2019-02-07T23:05:21.265Z,21.20
2019-02-07T23:08:25.801Z,21.10
2019-02-07T23:11:30.713Z,21.20
2019-02-07T23:14:35.135Z,21.10
2019-02-07T23:17:39.964Z,21.00
2019-02-07T23:20:44.897Z,21.00
2019-02-07T23:23:49.737Z,20.90
2019-02-07T23:26:54.544Z,20.80
2019-02-07T23:29:59.282Z,20.90
2019-02-07T23:33:04.130Z,20.60
2019-02-07T23:36:09.988Z,20.60
2019-02-07T23:39:14.836Z,20.70
2019-02-07T23:42:19.523Z,20.70
2019-02-07T23:45:24.380Z,20.80
2019-02-07T23:48:29.172Z,20.60
2019-02-07T23:51:34.100Z,20.60
2019-02-07T23:54:38.952Z,20.60
2019-02-07T23:57:43.804Z,20.70
